sensor_id;sensor_type;location;lat;lon;timestamp;pressure;altitude;pressure_sealevel;temperature;humidity
18533;BME280;9396;51.510;11.934;2023-02-14T00:01:57;102686.13;;;4.16;100.00
18533;BME280;9396;51.510;11.934;2023-02-14T00:04:24;102686.94;;;4.18;100.00
18533;BME280;9396;51.510;11.934;2023-02-14T00:06:51;102689.50;;;4.19;100.00
18533;BME280;9396;51.510;11.934;2023-02-14T00:09:18;102684.13;;;4.22;100.00
18533;BME280;9396;51.510;11.934;2023-02-14T00:11:46;102685.59;;;4.29;100.00
18533;BME280;9396;51.510;11.934;2023-02-14T00:14:13;102682.63;;;4.38;100.00
18533;BME280;9396;51.510;11.934;2023-02-14T00:16:57;102690.41;;;4.42;100.00
18533;BME280;9396;51.510;11.934;2023-02-14T00:19:24;102690.59;;;4.37;100.00
18533;BME280;9396;51.510;11.934;2023-02-14T00:21:51;102697.28;;;4.46;100.00
18533;BME280;9396;51.510;11.934;2023-02-14T00:24:20;102693.69;;;4.48;100.00
18533;BME280;9396;51.510;11.934;2023-02-14T00:26:49;102690.13;;;4.49;100.00
18533;BME280;9396;51.510;11.934;2023-02-14T00:29:18;102687.41;;;4.51;100.00
18533;BME280;9396;51.510;11.934;2023-02-14T00:31:45;102681.25;;;4.52;100.00
18533;BME280;9396;51.510;11.934;2023-02-14T00:34:13;102683.53;;;4.61;100.00
18533;BME280;9396;51.510;11.934;2023-02-14T00:36:40;102677.09;;;4.68;100.00
18533;BME280;9396;51.510;11.934;2023-02-14T00:39:08;102648.69;;;4.53;100.00
18533;BME280;9396;51.510;11.934;2023-02-14T00:41:35;102679.31;;;4.78;100.00
18533;BME280;9396;51.510;11.934;2023-02-14T00:44:03;102682.47;;;4.86;100.00
18533;BME280;9396;51.510;11.934;2023-02-14T00:46:30;102625.78;;;4.55;100.00
18533;BME280;9396;51.510;11.934;2023-02-14T00:48:57;102683.91;;;4.73;100.00
18533;BME280;9396;51.510;11.934;2023-02-14T00:51:24;102684.38;;;4.83;100.00
18533;BME280;9396;51.510;11.934;2023-02-14T00:53:51;102681.66;;;4.86;100.00
18533;BME280;9396;51.510;11.934;2023-02-14T00:56:18;102682.19;;;4.94;100.00
18533;BME280;9396;51.510;11.934;2023-02-14T00:58:45;102679.41;;;4.97;100.00
18533;BME280;9396;51.510;11.934;2023-02-14T01:01:15;102688.94;;;5.01;100.00
18533;BME280;9396;51.510;11.934;2023-02-14T01:03:42;102686.28;;;5.01;100.00
18533;BME280;9396;51.510;11.934;2023-02-14T01:06:08;102682.19;;;4.94;100.00
18533;BME280;9396;51.510;11.934;2023-02-14T01:08:35;102687.53;;;4.92;100.00
18533;BME280;9396;51.510;11.934;2023-02-14T01:11:06;102682.97;;;4.96;100.00
18533;BME280;9396;51.510;11.934;2023-02-14T01:13:33;102690.03;;;4.95;100.00
18533;BME280;9396;51.510;11.934;2023-02-14T01:16:04;102688.06;;;5.00;100.00
18533;BME280;9396;51.510;11.934;2023-02-14T01:18:33;102684.66;;;4.98;100.00
18533;BME280;9396;51.510;11.934;2023-02-14T01:21:11;102681.06;;;4.99;99.89
18533;BME280;9396;51.510;11.934;2023-02-14T01:23:38;102684.59;;;5.00;99.74
18533;BME280;9396;51.510;11.934;2023-02-14T01:26:05;102681.38;;;4.92;99.63
18533;BME280;9396;51.510;11.934;2023-02-14T01:28:32;102681.00;;;4.79;99.67
18533;BME280;9396;51.510;11.934;2023-02-14T01:31:05;102684.38;;;4.40;99.07
18533;BME280;9396;51.510;11.934;2023-02-14T01:33:33;102676.28;;;4.44;99.43
18533;BME280;9396;51.510;11.934;2023-02-14T01:36:00;102678.56;;;4.53;99.36
18533;BME280;9396;51.510;11.934;2023-02-14T01:38:27;102667.78;;;4.59;99.37
18533;BME280;9396;51.510;11.934;2023-02-14T01:40:53;102671.25;;;4.60;99.67
18533;BME280;9396;51.510;11.934;2023-02-14T01:43:20;102666.06;;;4.58;99.77
18533;BME280;9396;51.510;11.934;2023-02-14T01:45:47;102661.38;;;4.65;99.78
18533;BME280;9396;51.510;11.934;2023-02-14T01:48:14;102659.63;;;4.65;100.00
18533;BME280;9396;51.510;11.934;2023-02-14T01:50:44;102655.94;;;4.69;100.00
18533;BME280;9396;51.510;11.934;2023-02-14T01:53:14;102658.38;;;4.74;99.81
18533;BME280;9396;51.510;11.934;2023-02-14T01:55:44;102652.94;;;4.78;99.81
18533;BME280;9396;51.510;11.934;2023-02-14T01:58:14;102662.75;;;4.75;99.80
18533;BME280;9396;51.510;11.934;2023-02-14T02:00:42;102659.09;;;4.79;99.59
18533;BME280;9396;51.510;11.934;2023-02-14T02:03:27;102661.72;;;4.79;99.73
18533;BME280;9396;51.510;11.934;2023-02-14T02:06:04;102666.13;;;4.33;100.00
18533;BME280;9396;51.510;11.934;2023-02-14T02:08:38;102659.44;;;4.48;100.00
18533;BME280;9396;51.510;11.934;2023-02-14T02:11:06;102664.28;;;4.59;100.00
18533;BME280;9396;51.510;11.934;2023-02-14T02:13:33;102663.78;;;4.71;100.00
18533;BME280;9396;51.510;11.934;2023-02-14T02:16:11;102653.75;;;4.80;100.00
18533;BME280;9396;51.510;11.934;2023-02-14T02:18:55;102653.38;;;4.89;100.00
18533;BME280;9396;51.510;11.934;2023-02-14T02:21:56;102652.28;;;4.95;100.00
18533;BME280;9396;51.510;11.934;2023-02-14T02:24:33;102643.19;;;5.02;100.00
18533;BME280;9396;51.510;11.934;2023-02-14T02:27:31;102637.63;;;5.08;100.00
18533;BME280;9396;51.510;11.934;2023-02-14T02:33:19;102635.22;;;5.03;100.00
18533;BME280;9396;51.510;11.934;2023-02-14T02:35:59;102638.38;;;5.11;100.00
18533;BME280;9396;51.510;11.934;2023-02-14T02:38:45;102631.97;;;5.17;100.00
18533;BME280;9396;51.510;11.934;2023-02-14T02:41:17;102636.97;;;5.03;100.00
18533;BME280;9396;51.510;11.934;2023-02-14T02:43:53;102627.97;;;5.08;100.00
18533;BME280;9396;51.510;11.934;2023-02-14T02:46:23;102623.28;;;5.15;100.00
18533;BME280;9396;51.510;11.934;2023-02-14T02:49:15;102617.88;;;5.18;100.00
18533;BME280;9396;51.510;11.934;2023-02-14T02:52:12;102619.66;;;5.17;100.00
18533;BME280;9396;51.510;11.934;2023-02-14T02:55:02;102612.34;;;5.24;100.00
18533;BME280;9396;51.510;11.934;2023-02-14T02:57:33;102613.84;;;5.29;100.00
18533;BME280;9396;51.510;11.934;2023-02-14T03:00:02;102617.16;;;5.34;100.00
18533;BME280;9396;51.510;11.934;2023-02-14T03:02:31;102612.59;;;5.38;100.00
18533;BME280;9396;51.510;11.934;2023-02-14T03:05:19;102622.09;;;5.42;100.00
18533;BME280;9396;51.510;11.934;2023-02-14T03:07:47;102614.97;;;5.44;100.00
18533;BME280;9396;51.510;11.934;2023-02-14T03:10:16;102614.13;;;5.43;100.00
18533;BME280;9396;51.510;11.934;2023-02-14T03:13:10;102614.91;;;5.45;100.00
18533;BME280;9396;51.510;11.934;2023-02-14T03:15:56;102619.25;;;5.46;100.00
18533;BME280;9396;51.510;11.934;2023-02-14T03:18:50;102616.81;;;5.42;100.00
18533;BME280;9396;51.510;11.934;2023-02-14T03:21:42;102631.78;;;5.41;100.00
18533;BME280;9396;51.510;11.934;2023-02-14T03:24:18;102626.59;;;5.40;100.00
18533;BME280;9396;51.510;11.934;2023-02-14T03:26:56;102624.00;;;5.38;100.00
18533;BME280;9396;51.510;11.934;2023-02-14T03:29:31;102628.25;;;5.42;100.00
18533;BME280;9396;51.510;11.934;2023-02-14T03:32:06;102626.59;;;5.40;100.00
18533;BME280;9396;51.510;11.934;2023-02-14T03:34:44;102628.25;;;5.42;100.00
18533;BME280;9396;51.510;11.934;2023-02-14T03:37:14;102619.78;;;5.34;100.00
18533;BME280;9396;51.510;11.934;2023-02-14T03:39:50;102624.09;;;4.75;100.00
18533;BME280;9396;51.510;11.934;2023-02-14T03:42:22;102630.75;;;4.84;100.00
18533;BME280;9396;51.510;11.934;2023-02-14T03:44:51;102625.63;;;5.01;100.00
18533;BME280;9396;51.510;11.934;2023-02-14T03:47:22;102628.69;;;5.12;100.00
18533;BME280;9396;51.510;11.934;2023-02-14T03:49:54;102620.53;;;5.18;100.00
18533;BME280;9396;51.510;11.934;2023-02-14T03:52:23;102621.28;;;5.20;100.00
18533;BME280;9396;51.510;11.934;2023-02-14T03:54:55;102614.97;;;5.24;100.00
18533;BME280;9396;51.510;11.934;2023-02-14T03:57:25;102612.34;;;5.24;100.00
18533;BME280;9396;51.510;11.934;2023-02-14T03:59:55;102615.91;;;5.23;100.00
18533;BME280;9396;51.510;11.934;2023-02-14T04:02:25;102615.91;;;5.23;100.00
18533;BME280;9396;51.510;11.934;2023-02-14T04:04:53;102615.63;;;5.29;100.00
18533;BME280;9396;51.510;11.934;2023-02-14T04:07:22;102612.91;;;5.30;100.00
18533;BME280;9396;51.510;11.934;2023-02-14T04:09:50;102617.53;;;5.25;100.00
18533;BME280;9396;51.510;11.934;2023-02-14T04:12:19;102615.75;;;5.26;100.00
18533;BME280;9396;51.510;11.934;2023-02-14T04:14:46;102609.44;;;5.30;100.00
18533;BME280;9396;51.510;11.934;2023-02-14T04:17:12;102602.09;;;5.36;100.00
18533;BME280;9396;51.510;11.934;2023-02-14T04:19:56;102604.69;;;5.38;100.00
18533;BME280;9396;51.510;11.934;2023-02-14T04:22:23;102601.19;;;5.37;100.00
18533;BME280;9396;51.510;11.934;2023-02-14T04:24:50;102598.59;;;5.36;100.00
18533;BME280;9396;51.510;11.934;2023-02-14T04:27:17;102602.09;;;5.36;100.00
18533;BME280;9396;51.510;11.934;2023-02-14T04:29:46;102602.03;;;5.38;100.00
18533;BME280;9396;51.510;11.934;2023-02-14T04:32:14;102603.03;;;5.35;100.00
18533;BME280;9396;51.510;11.934;2023-02-14T04:34:41;102608.19;;;5.38;100.00
18533;BME280;9396;51.510;11.934;2023-02-14T04:37:08;102600.13;;;5.41;100.00
18533;BME280;9396;51.510;11.934;2023-02-14T04:39:35;102601.00;;;5.42;100.00
18533;BME280;9396;51.510;11.934;2023-02-14T04:42:03;102599.16;;;5.44;100.00
18533;BME280;9396;51.510;11.934;2023-02-14T04:44:31;102595.63;;;5.43;100.00
18533;BME280;9396;51.510;11.934;2023-02-14T04:46:58;102590.31;;;5.25;100.00
18533;BME280;9396;51.510;11.934;2023-02-14T04:49:25;102589.16;;;5.30;100.00
18533;BME280;9396;51.510;11.934;2023-02-14T04:51:51;102583.72;;;5.35;100.00
18533;BME280;9396;51.510;11.934;2023-02-14T04:54:18;102583.88;;;5.30;100.00
18533;BME280;9396;51.510;11.934;2023-02-14T04:56:44;102585.47;;;5.34;100.00
18533;BME280;9396;51.510;11.934;2023-02-14T04:59:11;102583.63;;;5.36;100.00
18533;BME280;9396;51.510;11.934;2023-02-14T05:01:40;102582.72;;;5.37;100.00
18533;BME280;9396;51.510;11.934;2023-02-14T05:04:07;102578.28;;;5.38;100.00
18533;BME280;9396;51.510;11.934;2023-02-14T05:06:33;102588.19;;;5.33;100.00
18533;BME280;9396;51.510;11.934;2023-02-14T05:09:00;102577.84;;;5.28;100.00
18533;BME280;9396;51.510;11.934;2023-02-14T05:11:27;102580.28;;;5.33;100.00
18533;BME280;9396;51.510;11.934;2023-02-14T05:13:54;102580.09;;;5.37;100.00
18533;BME280;9396;51.510;11.934;2023-02-14T05:16:21;102572.91;;;5.41;100.00
18533;BME280;9396;51.510;11.934;2023-02-14T05:18:49;102579.38;;;5.14;100.00
18533;BME280;9396;51.510;11.934;2023-02-14T05:21:16;102577.31;;;5.20;100.00
18533;BME280;9396;51.510;11.934;2023-02-14T05:23:42;102572.75;;;5.24;100.00
18533;BME280;9396;51.510;11.934;2023-02-14T05:26:09;102572.34;;;5.13;100.00
18533;BME280;9396;51.510;11.934;2023-02-14T05:28:36;102561.28;;;5.05;100.00
18533;BME280;9396;51.510;11.934;2023-02-14T05:31:05;102566.03;;;5.17;100.00
18533;BME280;9396;51.510;11.934;2023-02-14T05:33:31;102569.47;;;5.19;100.00
18533;BME280;9396;51.510;11.934;2023-02-14T05:35:59;102570.13;;;5.04;100.00
18533;BME280;9396;51.510;11.934;2023-02-14T05:38:27;102565.25;;;5.15;100.00
18533;BME280;9396;51.510;11.934;2023-02-14T05:40:53;102564.13;;;5.20;100.00
18533;BME280;9396;51.510;11.934;2023-02-14T05:43:20;102550.13;;;5.18;100.00
18533;BME280;9396;51.510;11.934;2023-02-14T05:45:47;102568.13;;;5.29;100.00
18533;BME280;9396;51.510;11.934;2023-02-14T05:48:13;102551.66;;;5.04;100.00
18533;BME280;9396;51.510;11.934;2023-02-14T05:50:40;102557.28;;;4.96;100.00
18533;BME280;9396;51.510;11.934;2023-02-14T05:53:08;102557.59;;;4.89;100.00
18533;BME280;9396;51.510;11.934;2023-02-14T05:55:35;102555.63;;;4.94;100.00
18533;BME280;9396;51.510;11.934;2023-02-14T05:58:02;102562.19;;;5.04;100.00
18533;BME280;9396;51.510;11.934;2023-02-14T06:00:28;102568.41;;;5.03;100.00
18533;BME280;9396;51.510;11.934;2023-02-14T06:02:55;102564.44;;;5.13;100.00
18533;BME280;9396;51.510;11.934;2023-02-14T06:05:22;102572.25;;;5.16;100.00
18533;BME280;9396;51.510;11.934;2023-02-14T06:07:49;102580.22;;;4.94;100.00
18533;BME280;9396;51.510;11.934;2023-02-14T06:10:18;102579.63;;;5.08;100.00
18533;BME280;9396;51.510;11.934;2023-02-14T06:12:47;102578.16;;;5.01;100.00
18533;BME280;9396;51.510;11.934;2023-02-14T06:15:14;102583.06;;;5.10;100.00
18533;BME280;9396;51.510;11.934;2023-02-14T06:17:41;102581.22;;;5.12;100.00
18533;BME280;9396;51.510;11.934;2023-02-14T06:20:09;102573.34;;;4.90;100.00
18533;BME280;9396;51.510;11.934;2023-02-14T06:22:36;102577.97;;;4.64;100.00
18533;BME280;9396;51.510;11.934;2023-02-14T06:25:04;102582.78;;;4.32;100.00
18533;BME280;9396;51.510;11.934;2023-02-14T06:27:32;102587.78;;;4.60;100.00
18533;BME280;9396;51.510;11.934;2023-02-14T06:29:59;102582.69;;;4.77;100.00
18533;BME280;9396;51.510;11.934;2023-02-14T06:32:25;102582.91;;;4.93;100.00
18533;BME280;9396;51.510;11.934;2023-02-14T06:34:52;102581.84;;;4.97;100.00
18533;BME280;9396;51.510;11.934;2023-02-14T06:37:19;102589.00;;;4.95;100.00
18533;BME280;9396;51.510;11.934;2023-02-14T06:39:45;102588.28;;;4.90;100.00
18533;BME280;9396;51.510;11.934;2023-02-14T06:42:12;102593.56;;;4.90;100.00
18533;BME280;9396;51.510;11.934;2023-02-14T06:44:40;102590.69;;;4.96;100.00
18533;BME280;9396;51.510;11.934;2023-02-14T06:47:06;102597.41;;;5.03;100.00
18533;BME280;9396;51.510;11.934;2023-02-14T06:49:33;102598.16;;;5.06;100.00
18533;BME280;9396;51.510;11.934;2023-02-14T06:52:00;102590.97;;;5.10;100.00
18533;BME280;9396;51.510;11.934;2023-02-14T06:54:26;102587.13;;;4.97;100.00
18533;BME280;9396;51.510;11.934;2023-02-14T06:56:53;102585.94;;;5.04;100.00
18533;BME280;9396;51.510;11.934;2023-02-14T06:59:20;102577.78;;;5.10;100.00
18533;BME280;9396;51.510;11.934;2023-02-14T07:01:48;102584.56;;;5.15;100.00
18533;BME280;9396;51.510;11.934;2023-02-14T07:04:15;102569.06;;;5.08;100.00
18533;BME280;9396;51.510;11.934;2023-02-14T07:06:42;102443.69;;;4.41;100.00
18533;BME280;9396;51.510;11.934;2023-02-14T07:09:08;102572.19;;;5.17;99.89
18533;BME280;9396;51.510;11.934;2023-02-14T07:11:35;102575.63;;;5.19;100.00
18533;BME280;9396;51.510;11.934;2023-02-14T07:14:01;102569.31;;;5.22;100.00
18533;BME280;9396;51.510;11.934;2023-02-14T07:16:28;102570.13;;;5.24;99.89
18533;BME280;9396;51.510;11.934;2023-02-14T07:18:56;102576.19;;;5.26;99.25
18533;BME280;9396;51.510;11.934;2023-02-14T07:21:23;102577.00;;;5.28;99.02
18533;BME280;9396;51.510;11.934;2023-02-14T07:23:49;102570.78;;;5.29;98.66
18533;BME280;9396;51.510;11.934;2023-02-14T07:26:16;102573.81;;;5.20;98.50
18533;BME280;9396;51.510;11.934;2023-02-14T07:28:43;102580.59;;;5.25;99.10
18533;BME280;9396;51.510;11.934;2023-02-14T07:31:10;102492.78;;;4.83;98.45
18533;BME280;9396;51.510;11.934;2023-02-14T07:33:37;102567.47;;;5.24;99.06
18533;BME280;9396;51.510;11.934;2023-02-14T07:36:06;102576.06;;;5.29;98.81
18533;BME280;9396;51.510;11.934;2023-02-14T07:38:33;102573.41;;;5.29;98.12
18533;BME280;9396;51.510;11.934;2023-02-14T07:41:00;102569.78;;;5.31;98.29
18533;BME280;9396;51.510;11.934;2023-02-14T07:43:27;102563.59;;;5.32;98.29
18533;BME280;9396;51.510;11.934;2023-02-14T07:45:54;102572.38;;;5.33;97.52
18533;BME280;9396;51.510;11.934;2023-02-14T07:48:20;102568.03;;;5.32;97.71
18533;BME280;9396;51.510;11.934;2023-02-14T07:50:47;102573.16;;;5.15;97.88
18533;BME280;9396;51.510;11.934;2023-02-14T07:53:15;102568.66;;;5.17;98.44
18533;BME280;9396;51.510;11.934;2023-02-14T07:55:42;102572.94;;;4.79;98.00
18533;BME280;9396;51.510;11.934;2023-02-14T07:58:08;102563.50;;;4.74;100.00
18533;BME280;9396;51.510;11.934;2023-02-14T08:00:35;102574.13;;;4.51;100.00
18533;BME280;9396;51.510;11.934;2023-02-14T08:03:02;102576.25;;;4.19;100.00
18533;BME280;9396;51.510;11.934;2023-02-14T08:05:28;102573.56;;;4.43;100.00
18533;BME280;9396;51.510;11.934;2023-02-14T08:07:55;102574.19;;;4.49;100.00
18533;BME280;9396;51.510;11.934;2023-02-14T08:10:23;102565.09;;;4.78;100.00
18533;BME280;9396;51.510;11.934;2023-02-14T08:12:50;102573.06;;;4.55;100.00
18533;BME280;9396;51.510;11.934;2023-02-14T08:15:26;102579.66;;;4.86;100.00
18533;BME280;9396;51.510;11.934;2023-02-14T08:18:11;102570.75;;;4.25;100.00
18533;BME280;9396;51.510;11.934;2023-02-14T08:20:37;102572.84;;;4.39;100.00
18533;BME280;9396;51.510;11.934;2023-02-14T08:23:04;102573.38;;;4.69;100.00
18533;BME280;9396;51.510;11.934;2023-02-14T08:25:32;102567.00;;;4.74;100.00
18533;BME280;9396;51.510;11.934;2023-02-14T08:28:00;102566.31;;;4.91;100.00
18533;BME280;9396;51.510;11.934;2023-02-14T08:30:27;102565.25;;;5.15;100.00
18533;BME280;9396;51.510;11.934;2023-02-14T08:32:54;102566.03;;;5.37;99.09
18533;BME280;9396;51.510;11.934;2023-02-14T08:35:20;102553.34;;;5.45;98.14
18533;BME280;9396;51.510;11.934;2023-02-14T08:37:47;102556.91;;;5.44;96.88
18533;BME280;9396;51.510;11.934;2023-02-14T08:40:14;102564.19;;;5.39;97.18
18533;BME280;9396;51.510;11.934;2023-02-14T08:42:42;102556.38;;;5.56;96.55
18533;BME280;9396;51.510;11.934;2023-02-14T08:45:08;102562.38;;;5.60;96.58
18533;BME280;9396;51.510;11.934;2023-02-14T08:47:35;102564.81;;;5.64;96.46
18533;BME280;9396;51.510;11.934;2023-02-14T08:50:03;102561.91;;;5.50;95.63
18533;BME280;9396;51.510;11.934;2023-02-14T08:52:30;102559.22;;;5.70;95.96
18533;BME280;9396;51.510;11.934;2023-02-14T08:54:57;102554.66;;;5.74;96.06
18533;BME280;9396;51.510;11.934;2023-02-14T08:57:23;102562.47;;;5.77;95.20
18533;BME280;9396;51.510;11.934;2023-02-14T08:59:53;102554.84;;;5.51;94.80
18533;BME280;9396;51.510;11.934;2023-02-14T09:02:19;102547.94;;;5.48;96.10
18533;BME280;9396;51.510;11.934;2023-02-14T09:04:46;102553.63;;;5.39;95.49
18533;BME280;9396;51.510;11.934;2023-02-14T09:07:13;102562.06;;;5.27;96.33
18533;BME280;9396;51.510;11.934;2023-02-14T09:09:39;102557.91;;;5.41;96.30
18533;BME280;9396;51.510;11.934;2023-02-14T09:12:08;102545.31;;;5.28;97.13
18533;BME280;9396;51.510;11.934;2023-02-14T09:14:35;102543.81;;;5.42;97.57
18533;BME280;9396;51.510;11.934;2023-02-14T09:17:03;102547.94;;;5.48;97.92
18533;BME280;9396;51.510;11.934;2023-02-14T09:19:31;102550.28;;;5.54;97.93
18533;BME280;9396;51.510;11.934;2023-02-14T09:21:57;102549.25;;;5.38;97.75
18533;BME280;9396;51.510;11.934;2023-02-14T09:24:24;102548.75;;;5.30;98.47
18533;BME280;9396;51.510;11.934;2023-02-14T09:26:52;102555.06;;;5.46;98.76
18533;BME280;9396;51.510;11.934;2023-02-14T09:29:19;102539.63;;;5.57;99.41
18533;BME280;9396;51.510;11.934;2023-02-14T09:31:45;102549.09;;;5.61;98.43
18533;BME280;9396;51.510;11.934;2023-02-14T09:34:13;102547.81;;;5.51;97.85
18533;BME280;9396;51.510;11.934;2023-02-14T09:36:58;102545.84;;;5.75;98.32
18533;BME280;9396;51.510;11.934;2023-02-14T09:39:24;102543.75;;;5.81;98.29
18533;BME280;9396;51.510;11.934;2023-02-14T09:42:02;102545.97;;;5.72;97.71
18533;BME280;9396;51.510;11.934;2023-02-14T09:44:33;102546.28;;;5.84;98.25
18533;BME280;9396;51.510;11.934;2023-02-14T09:47:06;102544.28;;;5.89;97.00
18533;BME280;9396;51.510;11.934;2023-02-14T09:49:39;102545.66;;;5.59;96.55
18533;BME280;9396;51.510;11.934;2023-02-14T09:52:09;102542.09;;;5.79;98.21
18533;BME280;9396;51.510;11.934;2023-02-14T09:54:39;102548.81;;;5.87;97.60
18533;BME280;9396;51.510;11.934;2023-02-14T09:57:12;102546.28;;;5.84;97.38
18533;BME280;9396;51.510;11.934;2023-02-14T09:59:48;102545.28;;;6.05;98.88
18533;BME280;9396;51.510;11.934;2023-02-14T10:02:25;102548.28;;;6.16;98.62
18533;BME280;9396;51.510;11.934;2023-02-14T10:05:02;102550.63;;;6.22;96.80
18533;BME280;9396;51.510;11.934;2023-02-14T10:07:39;102546.41;;;6.18;96.64
18533;BME280;9396;51.510;11.934;2023-02-14T10:10:12;102540.78;;;6.26;97.15
18533;BME280;9396;51.510;11.934;2023-02-14T10:12:49;102481.06;;;6.05;96.87
18533;BME280;9396;51.510;11.934;2023-02-14T10:15:19;102440.84;;;5.98;96.89
18533;BME280;9396;51.510;11.934;2023-02-14T10:17:49;102531.06;;;6.62;95.96
18533;BME280;9396;51.510;11.934;2023-02-14T10:20:24;102533.91;;;6.40;95.91
18533;BME280;9396;51.510;11.934;2023-02-14T10:22:58;102530.72;;;6.51;95.89
18533;BME280;9396;51.510;11.934;2023-02-14T10:25:30;102523.34;;;6.58;96.39
18533;BME280;9396;51.510;11.934;2023-02-14T10:28:00;102534.31;;;6.67;95.78
18533;BME280;9396;51.510;11.934;2023-02-14T10:30:35;102532.06;;;6.77;96.73
18533;BME280;9396;51.510;11.934;2023-02-14T10:33:10;102536.19;;;6.65;97.43
18533;BME280;9396;51.510;11.934;2023-02-14T10:35:46;102529.31;;;7.12;100.00
18533;BME280;9396;51.510;11.934;2023-02-14T10:38:31;102527.03;;;7.39;100.00
18533;BME280;9396;51.510;11.934;2023-02-14T10:41:12;102522.56;;;7.07;95.99
18533;BME280;9396;51.510;11.934;2023-02-14T10:43:48;102519.00;;;7.08;95.35
18533;BME280;9396;51.510;11.934;2023-02-14T10:46:28;102516.31;;;7.25;95.78
18533;BME280;9396;51.510;11.934;2023-02-14T10:49:02;102512.88;;;7.40;96.11
18533;BME280;9396;51.510;11.934;2023-02-14T10:51:40;102514.78;;;7.21;94.21
18533;BME280;9396;51.510;11.934;2023-02-14T10:54:16;102512.13;;;7.04;94.00
18533;BME280;9396;51.510;11.934;2023-02-14T10:56:46;102512.44;;;7.15;95.10
18533;BME280;9396;51.510;11.934;2023-02-14T10:59:20;102508.50;;;7.06;94.74
18533;BME280;9396;51.510;11.934;2023-02-14T11:01:48;102500.94;;;6.99;95.67
18533;BME280;9396;51.510;11.934;2023-02-14T11:04:18;102498.19;;;7.17;95.33
18533;BME280;9396;51.510;11.934;2023-02-14T11:06:47;102382.03;;;6.63;96.47
18533;BME280;9396;51.510;11.934;2023-02-14T11:09:14;102484.41;;;7.28;95.14
18533;BME280;9396;51.510;11.934;2023-02-14T11:11:44;102496.88;;;7.26;95.44
18533;BME280;9396;51.510;11.934;2023-02-14T11:14:19;102487.84;;;7.13;95.13
18533;BME280;9396;51.510;11.934;2023-02-14T11:16:47;102481.13;;;7.23;94.86
18533;BME280;9396;51.510;11.934;2023-02-14T11:19:22;102488.22;;;7.22;94.80
18533;BME280;9396;51.510;11.934;2023-02-14T11:21:52;102479.53;;;7.36;95.58
18533;BME280;9396;51.510;11.934;2023-02-14T11:24:25;102461.97;;;7.35;95.37
18533;BME280;9396;51.510;11.934;2023-02-14T11:26:54;102473.47;;;7.34;94.01
18533;BME280;9396;51.510;11.934;2023-02-14T11:29:26;102478.19;;;7.44;94.99
18533;BME280;9396;51.510;11.934;2023-02-14T11:31:54;102478.56;;;7.54;94.17
18533;BME280;9396;51.510;11.934;2023-02-14T11:34:30;102479.16;;;7.59;94.75
18533;BME280;9396;51.510;11.934;2023-02-14T11:36:59;102480.28;;;7.71;94.58
18533;BME280;9396;51.510;11.934;2023-02-14T11:39:29;102471.97;;;7.61;93.95
18533;BME280;9396;51.510;11.934;2023-02-14T11:41:58;102468.56;;;7.59;94.27
18533;BME280;9396;51.510;11.934;2023-02-14T11:44:26;102461.31;;;7.78;95.69
18533;BME280;9396;51.510;11.934;2023-02-14T11:46:55;102457.03;;;7.76;94.19
18533;BME280;9396;51.510;11.934;2023-02-14T11:49:28;102454.38;;;7.60;93.39
18533;BME280;9396;51.510;11.934;2023-02-14T11:51:55;102452.94;;;7.70;94.86
18533;BME280;9396;51.510;11.934;2023-02-14T11:54:33;102449.78;;;7.79;94.24
18533;BME280;9396;51.510;11.934;2023-02-14T11:57:05;102444.47;;;7.95;94.35
18533;BME280;9396;51.510;11.934;2023-02-14T11:59:36;102441.53;;;7.99;93.85
18533;BME280;9396;51.510;11.934;2023-02-14T12:02:16;102440.81;;;7.97;92.56
18533;BME280;9396;51.510;11.934;2023-02-14T12:04:46;102442.50;;;7.98;93.78
18533;BME280;9396;51.510;11.934;2023-02-14T12:07:20;102434.59;;;8.12;93.54
18533;BME280;9396;51.510;11.934;2023-02-14T12:10:18;102441.78;;;8.10;92.85
18533;BME280;9396;51.510;11.934;2023-02-14T12:12:50;102430.56;;;8.21;93.37
18533;BME280;9396;51.510;11.934;2023-02-14T12:15:27;102423.94;;;8.29;93.29
18533;BME280;9396;51.510;11.934;2023-02-14T12:17:59;102427.66;;;8.41;93.41
18533;BME280;9396;51.510;11.934;2023-02-14T12:20:36;102423.88;;;8.45;93.13
18533;BME280;9396;51.510;11.934;2023-02-14T12:23:09;102426.22;;;8.35;93.24
18533;BME280;9396;51.510;11.934;2023-02-14T12:25:44;102421.53;;;8.25;92.95
18533;BME280;9396;51.510;11.934;2023-02-14T12:28:15;102418.28;;;8.20;91.68
18533;BME280;9396;51.510;11.934;2023-02-14T12:30:44;102409.75;;;8.15;90.85
18533;BME280;9396;51.510;11.934;2023-02-14T12:33:15;102409.81;;;8.29;91.15
18533;BME280;9396;51.510;11.934;2023-02-14T12:35:50;102407.47;;;8.38;91.77
18533;BME280;9396;51.510;11.934;2023-02-14T12:38:25;102406.78;;;8.35;91.65
18533;BME280;9396;51.510;11.934;2023-02-14T12:41:07;102407.84;;;8.32;90.99
18533;BME280;9396;51.510;11.934;2023-02-14T12:43:45;102405.38;;;8.29;91.71
18533;BME280;9396;51.510;11.934;2023-02-14T12:46:54;102404.59;;;8.27;91.03
18533;BME280;9396;51.510;11.934;2023-02-14T12:49:39;102394.47;;;8.34;92.16
18533;BME280;9396;51.510;11.934;2023-02-14T12:52:26;102395.16;;;8.37;91.69
18533;BME280;9396;51.510;11.934;2023-02-14T12:55:09;102390.28;;;8.45;92.93
18533;BME280;9396;51.510;11.934;2023-02-14T12:57:48;102386.56;;;8.48;92.01
18533;BME280;9396;51.510;11.934;2023-02-14T13:00:25;102278.97;;;8.00;91.51
18533;BME280;9396;51.510;11.934;2023-02-14T13:05:53;102373.44;;;8.75;90.77
18533;BME280;9396;51.510;11.934;2023-02-14T13:08:34;102375.22;;;8.74;91.12
18533;BME280;9396;51.510;11.934;2023-02-14T13:11:09;102375.31;;;8.73;90.07
18533;BME280;9396;51.510;11.934;2023-02-14T13:13:50;102375.81;;;8.79;89.67
18533;BME280;9396;51.510;11.934;2023-02-14T13:16:24;102366.22;;;8.77;90.69
18533;BME280;9396;51.510;11.934;2023-02-14T13:18:55;102366.22;;;8.77;91.34
18533;BME280;9396;51.510;11.934;2023-02-14T13:21:28;102362.44;;;8.67;90.65